sensor_id;sensor_type;location;lat;lon;timestamp;P1;durP1;ratioP1;P2;durP2;ratioP2
8665;SDS011;4370;48.916;8.380;2023-05-07T00:01:11;2.93;;;2.23;;
8665;SDS011;4370;48.916;8.380;2023-05-07T00:03:37;3.53;;;2.43;;
8665;SDS011;4370;48.916;8.380;2023-05-07T00:06:04;2.07;;;1.93;;
8665;SDS011;4370;48.916;8.380;2023-05-07T00:08:30;3.47;;;2.30;;
8665;SDS011;4370;48.916;8.380;2023-05-07T00:10:55;2.50;;;1.70;;
8665;SDS011;4370;48.916;8.380;2023-05-07T00:13:22;2.00;;;1.80;;
8665;SDS011;4370;48.916;8.380;2023-05-07T00:15:47;2.57;;;2.20;;
8665;SDS011;4370;48.916;8.380;2023-05-07T00:18:13;4.63;;;2.43;;
8665;SDS011;4370;48.916;8.380;2023-05-07T00:20:39;4.13;;;2.43;;
8665;SDS011;4370;48.916;8.380;2023-05-07T00:23:05;4.87;;;2.60;;
8665;SDS011;4370;48.916;8.380;2023-05-07T00:25:31;3.53;;;2.40;;
8665;SDS011;4370;48.916;8.380;2023-05-07T00:27:57;4.77;;;2.30;;
8665;SDS011;4370;48.916;8.380;2023-05-07T00:30:27;2.80;;;2.33;;
8665;SDS011;4370;48.916;8.380;2023-05-07T00:32:53;2.87;;;2.40;;
8665;SDS011;4370;48.916;8.380;2023-05-07T00:35:19;2.60;;;2.30;;
8665;SDS011;4370;48.916;8.380;2023-05-07T00:37:45;2.30;;;2.10;;
8665;SDS011;4370;48.916;8.380;2023-05-07T00:40:11;2.57;;;2.27;;
8665;SDS011;4370;48.916;8.380;2023-05-07T00:42:37;3.90;;;2.50;;
8665;SDS011;4370;48.916;8.380;2023-05-07T00:45:03;4.37;;;2.40;;
8665;SDS011;4370;48.916;8.380;2023-05-07T00:47:29;2.97;;;2.20;;
8665;SDS011;4370;48.916;8.380;2023-05-07T00:49:55;2.60;;;2.40;;
8665;SDS011;4370;48.916;8.380;2023-05-07T00:52:22;4.00;;;2.60;;
8665;SDS011;4370;48.916;8.380;2023-05-07T00:54:50;3.07;;;2.73;;
8665;SDS011;4370;48.916;8.380;2023-05-07T00:57:16;2.83;;;2.60;;
8665;SDS011;4370;48.916;8.380;2023-05-07T00:59:42;4.53;;;2.40;;
8665;SDS011;4370;48.916;8.380;2023-05-07T01:02:08;2.93;;;2.63;;
8665;SDS011;4370;48.916;8.380;2023-05-07T01:04:34;3.97;;;2.73;;
8665;SDS011;4370;48.916;8.380;2023-05-07T01:07:00;5.73;;;2.70;;
8665;SDS011;4370;48.916;8.380;2023-05-07T01:09:26;4.67;;;2.80;;
8665;SDS011;4370;48.916;8.380;2023-05-07T01:11:53;5.10;;;2.60;;
8665;SDS011;4370;48.916;8.380;2023-05-07T01:14:20;3.57;;;2.50;;
8665;SDS011;4370;48.916;8.380;2023-05-07T01:16:47;3.47;;;2.73;;
8665;SDS011;4370;48.916;8.380;2023-05-07T01:19:13;6.50;;;2.93;;
8665;SDS011;4370;48.916;8.380;2023-05-07T01:21:44;5.40;;;2.87;;
8665;SDS011;4370;48.916;8.380;2023-05-07T01:24:12;3.17;;;2.33;;
8665;SDS011;4370;48.916;8.380;2023-05-07T01:26:38;3.83;;;2.60;;
8665;SDS011;4370;48.916;8.380;2023-05-07T01:29:04;3.00;;;2.70;;
8665;SDS011;4370;48.916;8.380;2023-05-07T01:31:30;2.70;;;2.50;;
8665;SDS011;4370;48.916;8.380;2023-05-07T01:33:56;4.03;;;2.73;;
8665;SDS011;4370;48.916;8.380;2023-05-07T01:36:24;3.77;;;2.57;;
8665;SDS011;4370;48.916;8.380;2023-05-07T01:38:52;3.93;;;2.33;;
8665;SDS011;4370;48.916;8.380;2023-05-07T01:41:18;2.40;;;2.20;;
8665;SDS011;4370;48.916;8.380;2023-05-07T01:43:44;4.93;;;2.47;;
8665;SDS011;4370;48.916;8.380;2023-05-07T01:46:12;2.53;;;2.33;;
8665;SDS011;4370;48.916;8.380;2023-05-07T01:48:40;2.67;;;2.47;;
8665;SDS011;4370;48.916;8.380;2023-05-07T01:51:06;3.30;;;2.30;;
8665;SDS011;4370;48.916;8.380;2023-05-07T01:53:36;4.23;;;2.20;;
8665;SDS011;4370;48.916;8.380;2023-05-07T01:56:02;3.30;;;2.10;;
8665;SDS011;4370;48.916;8.380;2023-05-07T01:58:28;4.27;;;2.40;;
8665;SDS011;4370;48.916;8.380;2023-05-07T02:00:54;2.83;;;2.53;;
8665;SDS011;4370;48.916;8.380;2023-05-07T02:03:19;4.03;;;3.30;;
8665;SDS011;4370;48.916;8.380;2023-05-07T02:05:45;2.67;;;2.37;;
8665;SDS011;4370;48.916;8.380;2023-05-07T02:08:11;2.30;;;2.10;;
8665;SDS011;4370;48.916;8.380;2023-05-07T02:10:37;2.77;;;2.40;;
8665;SDS011;4370;48.916;8.380;2023-05-07T02:13:03;2.30;;;2.10;;
8665;SDS011;4370;48.916;8.380;2023-05-07T02:15:29;3.50;;;2.50;;
8665;SDS011;4370;48.916;8.380;2023-05-07T02:18:03;3.03;;;2.40;;
8665;SDS011;4370;48.916;8.380;2023-05-07T02:20:30;2.47;;;2.20;;
8665;SDS011;4370;48.916;8.380;2023-05-07T02:22:56;2.40;;;2.20;;
8665;SDS011;4370;48.916;8.380;2023-05-07T02:25:22;3.63;;;2.40;;
8665;SDS011;4370;48.916;8.380;2023-05-07T02:27:47;3.73;;;2.57;;
8665;SDS011;4370;48.916;8.380;2023-05-07T02:30:13;3.20;;;2.90;;
8665;SDS011;4370;48.916;8.380;2023-05-07T02:32:39;3.60;;;2.57;;
8665;SDS011;4370;48.916;8.380;2023-05-07T02:35:05;2.80;;;2.53;;
8665;SDS011;4370;48.916;8.380;2023-05-07T02:37:31;3.70;;;2.50;;
8665;SDS011;4370;48.916;8.380;2023-05-07T02:39:57;2.90;;;2.60;;
8665;SDS011;4370;48.916;8.380;2023-05-07T02:42:23;4.50;;;2.80;;
8665;SDS011;4370;48.916;8.380;2023-05-07T02:44:49;2.40;;;2.20;;
8665;SDS011;4370;48.916;8.380;2023-05-07T02:47:15;2.63;;;2.43;;
8665;SDS011;4370;48.916;8.380;2023-05-07T02:49:41;2.70;;;2.50;;
8665;SDS011;4370;48.916;8.380;2023-05-07T02:52:07;2.63;;;2.43;;
8665;SDS011;4370;48.916;8.380;2023-05-07T02:54:33;2.50;;;2.30;;
8665;SDS011;4370;48.916;8.380;2023-05-07T02:56:59;2.47;;;2.27;;
8665;SDS011;4370;48.916;8.380;2023-05-07T02:59:25;2.40;;;2.20;;
8665;SDS011;4370;48.916;8.380;2023-05-07T03:01:52;3.10;;;2.30;;
8665;SDS011;4370;48.916;8.380;2023-05-07T03:04:18;2.70;;;2.50;;
8665;SDS011;4370;48.916;8.380;2023-05-07T03:06:43;2.40;;;2.20;;
8665;SDS011;4370;48.916;8.380;2023-05-07T03:09:10;2.67;;;2.47;;
8665;SDS011;4370;48.916;8.380;2023-05-07T03:11:35;2.50;;;2.30;;
8665;SDS011;4370;48.916;8.380;2023-05-07T03:14:02;5.00;;;2.90;;
8665;SDS011;4370;48.916;8.380;2023-05-07T03:16:28;3.03;;;2.73;;
8665;SDS011;4370;48.916;8.380;2023-05-07T03:18:54;3.50;;;2.77;;
8665;SDS011;4370;48.916;8.380;2023-05-07T03:21:20;3.20;;;2.90;;
8665;SDS011;4370;48.916;8.380;2023-05-07T03:23:45;7.73;;;3.40;;
8665;SDS011;4370;48.916;8.380;2023-05-07T03:26:11;3.60;;;3.10;;
8665;SDS011;4370;48.916;8.380;2023-05-07T03:28:37;5.90;;;3.23;;
8665;SDS011;4370;48.916;8.380;2023-05-07T03:31:03;3.70;;;3.33;;
8665;SDS011;4370;48.916;8.380;2023-05-07T03:33:30;3.33;;;3.03;;
8665;SDS011;4370;48.916;8.380;2023-05-07T03:35:58;5.10;;;3.13;;
8665;SDS011;4370;48.916;8.380;2023-05-07T03:38:23;3.53;;;2.93;;
8665;SDS011;4370;48.916;8.380;2023-05-07T03:40:49;3.50;;;3.20;;
8665;SDS011;4370;48.916;8.380;2023-05-07T03:43:15;4.80;;;3.03;;
8665;SDS011;4370;48.916;8.380;2023-05-07T03:45:41;4.50;;;3.30;;
8665;SDS011;4370;48.916;8.380;2023-05-07T03:48:07;3.17;;;2.97;;
8665;SDS011;4370;48.916;8.380;2023-05-07T03:50:33;5.30;;;3.40;;
8665;SDS011;4370;48.916;8.380;2023-05-07T03:52:59;4.37;;;3.03;;
8665;SDS011;4370;48.916;8.380;2023-05-07T03:55:25;3.50;;;3.07;;
8665;SDS011;4370;48.916;8.380;2023-05-07T03:57:51;4.10;;;3.30;;
8665;SDS011;4370;48.916;8.380;2023-05-07T04:00:17;4.87;;;3.60;;
8665;SDS011;4370;48.916;8.380;2023-05-07T04:02:45;4.37;;;3.10;;
8665;SDS011;4370;48.916;8.380;2023-05-07T04:05:10;4.27;;;3.57;;
8665;SDS011;4370;48.916;8.380;2023-05-07T04:07:38;3.77;;;2.87;;
8665;SDS011;4370;48.916;8.380;2023-05-07T04:10:04;3.07;;;2.80;;
8665;SDS011;4370;48.916;8.380;2023-05-07T04:12:30;5.53;;;2.97;;
8665;SDS011;4370;48.916;8.380;2023-05-07T04:14:56;3.00;;;2.43;;
8665;SDS011;4370;48.916;8.380;2023-05-07T04:17:22;3.43;;;3.10;;
8665;SDS011;4370;48.916;8.380;2023-05-07T04:19:48;3.40;;;3.10;;
8665;SDS011;4370;48.916;8.380;2023-05-07T04:22:13;3.13;;;2.67;;
8665;SDS011;4370;48.916;8.380;2023-05-07T04:24:39;3.27;;;2.63;;
8665;SDS011;4370;48.916;8.380;2023-05-07T04:27:05;3.20;;;2.60;;
8665;SDS011;4370;48.916;8.380;2023-05-07T04:29:31;2.67;;;2.43;;
8665;SDS011;4370;48.916;8.380;2023-05-07T04:31:57;3.43;;;2.93;;
8665;SDS011;4370;48.916;8.380;2023-05-07T04:34:23;2.70;;;2.50;;
8665;SDS011;4370;48.916;8.380;2023-05-07T04:36:49;2.70;;;2.50;;
8665;SDS011;4370;48.916;8.380;2023-05-07T04:39:15;3.00;;;2.60;;
8665;SDS011;4370;48.916;8.380;2023-05-07T04:41:41;2.70;;;2.50;;
8665;SDS011;4370;48.916;8.380;2023-05-07T04:44:07;3.77;;;2.97;;
8665;SDS011;4370;48.916;8.380;2023-05-07T04:46:34;2.80;;;2.60;;
8665;SDS011;4370;48.916;8.380;2023-05-07T04:48:59;2.93;;;2.63;;
8665;SDS011;4370;48.916;8.380;2023-05-07T04:51:25;2.53;;;2.37;;
8665;SDS011;4370;48.916;8.380;2023-05-07T04:53:53;3.03;;;2.30;;
8665;SDS011;4370;48.916;8.380;2023-05-07T04:56:19;3.33;;;2.70;;
8665;SDS011;4370;48.916;8.380;2023-05-07T04:58:46;2.70;;;2.50;;
8665;SDS011;4370;48.916;8.380;2023-05-07T05:01:12;2.83;;;2.53;;
8665;SDS011;4370;48.916;8.380;2023-05-07T05:03:37;4.17;;;3.20;;
8665;SDS011;4370;48.916;8.380;2023-05-07T05:06:04;3.43;;;2.93;;
8665;SDS011;4370;48.916;8.380;2023-05-07T05:08:30;4.63;;;2.67;;
8665;SDS011;4370;48.916;8.380;2023-05-07T05:10:56;2.90;;;2.70;;
8665;SDS011;4370;48.916;8.380;2023-05-07T05:13:23;3.13;;;2.70;;
8665;SDS011;4370;48.916;8.380;2023-05-07T05:15:48;3.03;;;2.60;;
8665;SDS011;4370;48.916;8.380;2023-05-07T05:18:14;3.17;;;2.60;;
8665;SDS011;4370;48.916;8.380;2023-05-07T05:20:40;4.00;;;2.57;;
8665;SDS011;4370;48.916;8.380;2023-05-07T05:23:07;2.87;;;2.67;;
8665;SDS011;4370;48.916;8.380;2023-05-07T05:25:32;4.37;;;2.80;;
8665;SDS011;4370;48.916;8.380;2023-05-07T05:27:58;3.63;;;2.90;;
8665;SDS011;4370;48.916;8.380;2023-05-07T05:30:23;3.57;;;2.77;;
8665;SDS011;4370;48.916;8.380;2023-05-07T05:32:49;4.70;;;2.67;;
8665;SDS011;4370;48.916;8.380;2023-05-07T05:35:15;4.30;;;2.43;;
8665;SDS011;4370;48.916;8.380;2023-05-07T05:37:41;3.97;;;2.47;;
8665;SDS011;4370;48.916;8.380;2023-05-07T05:40:07;4.20;;;2.23;;
8665;SDS011;4370;48.916;8.380;2023-05-07T05:42:34;6.90;;;2.60;;
8665;SDS011;4370;48.916;8.380;2023-05-07T05:45:00;4.43;;;2.30;;
8665;SDS011;4370;48.916;8.380;2023-05-07T05:47:26;5.20;;;2.10;;
8665;SDS011;4370;48.916;8.380;2023-05-07T05:49:52;3.67;;;2.30;;
8665;SDS011;4370;48.916;8.380;2023-05-07T05:52:17;2.43;;;2.23;;
8665;SDS011;4370;48.916;8.380;2023-05-07T05:54:43;4.83;;;1.90;;
8665;SDS011;4370;48.916;8.380;2023-05-07T05:57:09;2.40;;;1.87;;
8665;SDS011;4370;48.916;8.380;2023-05-07T05:59:35;2.70;;;1.77;;
8665;SDS011;4370;48.916;8.380;2023-05-07T06:02:01;4.93;;;1.87;;
8665;SDS011;4370;48.916;8.380;2023-05-07T06:04:27;2.70;;;1.80;;
8665;SDS011;4370;48.916;8.380;2023-05-07T06:06:53;2.40;;;1.80;;
8665;SDS011;4370;48.916;8.380;2023-05-07T06:09:19;2.43;;;1.67;;
8665;SDS011;4370;48.916;8.380;2023-05-07T06:11:45;2.03;;;1.50;;
8665;SDS011;4370;48.916;8.380;2023-05-07T06:14:11;2.83;;;1.60;;
8665;SDS011;4370;48.916;8.380;2023-05-07T06:16:37;1.85;;;1.55;;
8665;SDS011;4370;48.916;8.380;2023-05-07T06:19:03;2.13;;;1.60;;
8665;SDS011;4370;48.916;8.380;2023-05-07T06:21:29;1.45;;;1.35;;
8665;SDS011;4370;48.916;8.380;2023-05-07T06:23:55;1.80;;;1.52;;
8665;SDS011;4370;48.916;8.380;2023-05-07T06:26:21;2.80;;;1.40;;
8665;SDS011;4370;48.916;8.380;2023-05-07T06:28:47;2.50;;;1.45;;
8665;SDS011;4370;48.916;8.380;2023-05-07T06:31:14;2.53;;;1.40;;
8665;SDS011;4370;48.916;8.380;2023-05-07T06:33:41;2.50;;;1.30;;
8665;SDS011;4370;48.916;8.380;2023-05-07T06:36:07;2.75;;;1.55;;
8665;SDS011;4370;48.916;8.380;2023-05-07T06:38:33;3.90;;;1.98;;
8665;SDS011;4370;48.916;8.380;2023-05-07T06:40:59;2.40;;;1.60;;
8665;SDS011;4370;48.916;8.380;2023-05-07T06:43:24;2.22;;;1.30;;
8665;SDS011;4370;48.916;8.380;2023-05-07T06:45:50;4.43;;;1.30;;
8665;SDS011;4370;48.916;8.380;2023-05-07T06:48:16;1.48;;;1.38;;
8665;SDS011;4370;48.916;8.380;2023-05-07T06:50:42;1.52;;;1.40;;
8665;SDS011;4370;48.916;8.380;2023-05-07T06:53:07;4.43;;;1.40;;
8665;SDS011;4370;48.916;8.380;2023-05-07T06:55:33;3.00;;;1.50;;
8665;SDS011;4370;48.916;8.380;2023-05-07T06:57:59;1.77;;;1.67;;
8665;SDS011;4370;48.916;8.380;2023-05-07T07:00:29;2.42;;;1.50;;
8665;SDS011;4370;48.916;8.380;2023-05-07T07:02:55;2.00;;;1.70;;
8665;SDS011;4370;48.916;8.380;2023-05-07T07:05:21;2.13;;;1.50;;
8665;SDS011;4370;48.916;8.380;2023-05-07T07:07:47;2.58;;;1.80;;
8665;SDS011;4370;48.916;8.380;2023-05-07T07:10:18;2.70;;;1.50;;
8665;SDS011;4370;48.916;8.380;2023-05-07T07:12:45;2.73;;;1.60;;
8665;SDS011;4370;48.916;8.380;2023-05-07T07:15:10;3.40;;;2.00;;
8665;SDS011;4370;48.916;8.380;2023-05-07T07:17:36;3.03;;;1.80;;
8665;SDS011;4370;48.916;8.380;2023-05-07T07:20:02;1.70;;;1.60;;
8665;SDS011;4370;48.916;8.380;2023-05-07T07:22:28;2.03;;;1.70;;
8665;SDS011;4370;48.916;8.380;2023-05-07T07:24:54;2.67;;;1.67;;
8665;SDS011;4370;48.916;8.380;2023-05-07T07:27:20;2.00;;;1.60;;
8665;SDS011;4370;48.916;8.380;2023-05-07T07:29:46;3.80;;;1.77;;
8665;SDS011;4370;48.916;8.380;2023-05-07T07:32:12;2.87;;;1.90;;
8665;SDS011;4370;48.916;8.380;2023-05-07T07:34:38;1.93;;;1.70;;
8665;SDS011;4370;48.916;8.380;2023-05-07T07:37:04;3.83;;;2.20;;
8665;SDS011;4370;48.916;8.380;2023-05-07T07:39:34;3.37;;;1.90;;
8665;SDS011;4370;48.916;8.380;2023-05-07T07:41:59;3.57;;;2.07;;
8665;SDS011;4370;48.916;8.380;2023-05-07T07:44:27;3.73;;;2.03;;
8665;SDS011;4370;48.916;8.380;2023-05-07T07:46:53;3.27;;;2.10;;
8665;SDS011;4370;48.916;8.380;2023-05-07T07:49:19;2.67;;;2.07;;
8665;SDS011;4370;48.916;8.380;2023-05-07T07:51:45;3.17;;;2.03;;
8665;SDS011;4370;48.916;8.380;2023-05-07T07:54:11;3.87;;;2.30;;
8665;SDS011;4370;48.916;8.380;2023-05-07T07:56:37;2.60;;;2.40;;
8665;SDS011;4370;48.916;8.380;2023-05-07T07:59:03;2.77;;;2.20;;
8665;SDS011;4370;48.916;8.380;2023-05-07T08:01:29;2.73;;;2.00;;
8665;SDS011;4370;48.916;8.380;2023-05-07T08:03:55;4.27;;;2.30;;
8665;SDS011;4370;48.916;8.380;2023-05-07T08:06:22;2.63;;;2.13;;
8665;SDS011;4370;48.916;8.380;2023-05-07T08:08:48;3.67;;;2.40;;
8665;SDS011;4370;48.916;8.380;2023-05-07T08:11:14;4.97;;;2.33;;
8665;SDS011;4370;48.916;8.380;2023-05-07T08:13:40;3.73;;;2.20;;
8665;SDS011;4370;48.916;8.380;2023-05-07T08:16:05;3.80;;;2.50;;
8665;SDS011;4370;48.916;8.380;2023-05-07T08:18:31;3.50;;;2.23;;
8665;SDS011;4370;48.916;8.380;2023-05-07T08:20:57;3.90;;;2.10;;
8665;SDS011;4370;48.916;8.380;2023-05-07T08:23:23;4.00;;;2.70;;
8665;SDS011;4370;48.916;8.380;2023-05-07T08:25:49;3.70;;;2.40;;
8665;SDS011;4370;48.916;8.380;2023-05-07T08:28:16;4.53;;;2.50;;
8665;SDS011;4370;48.916;8.380;2023-05-07T08:30:42;3.40;;;2.50;;
8665;SDS011;4370;48.916;8.380;2023-05-07T08:33:08;3.50;;;2.40;;
8665;SDS011;4370;48.916;8.380;2023-05-07T08:35:34;4.60;;;2.60;;
8665;SDS011;4370;48.916;8.380;2023-05-07T08:38:00;6.93;;;3.07;;
8665;SDS011;4370;48.916;8.380;2023-05-07T08:40:26;7.03;;;2.93;;
8665;SDS011;4370;48.916;8.380;2023-05-07T08:42:53;2.77;;;2.33;;
8665;SDS011;4370;48.916;8.380;2023-05-07T08:45:20;3.57;;;2.90;;
8665;SDS011;4370;48.916;8.380;2023-05-07T08:47:51;3.23;;;2.33;;
8665;SDS011;4370;48.916;8.380;2023-05-07T08:50:23;3.83;;;2.50;;
8665;SDS011;4370;48.916;8.380;2023-05-07T08:52:49;6.07;;;4.43;;
8665;SDS011;4370;48.916;8.380;2023-05-07T08:55:15;4.43;;;2.87;;
8665;SDS011;4370;48.916;8.380;2023-05-07T08:57:40;3.20;;;2.90;;
8665;SDS011;4370;48.916;8.380;2023-05-07T09:00:06;6.10;;;2.87;;
8665;SDS011;4370;48.916;8.380;2023-05-07T09:02:33;4.13;;;3.20;;
8665;SDS011;4370;48.916;8.380;2023-05-07T09:05:00;4.23;;;2.80;;
8665;SDS011;4370;48.916;8.380;2023-05-07T09:07:26;4.50;;;2.77;;
8665;SDS011;4370;48.916;8.380;2023-05-07T09:09:52;4.33;;;2.90;;
8665;SDS011;4370;48.916;8.380;2023-05-07T09:12:20;3.33;;;2.67;;
8665;SDS011;4370;48.916;8.380;2023-05-07T09:14:46;4.50;;;2.80;;
8665;SDS011;4370;48.916;8.380;2023-05-07T09:17:12;4.40;;;2.70;;
8665;SDS011;4370;48.916;8.380;2023-05-07T09:19:38;5.27;;;2.77;;
8665;SDS011;4370;48.916;8.380;2023-05-07T09:22:04;5.10;;;2.40;;
8665;SDS011;4370;48.916;8.380;2023-05-07T09:24:32;5.00;;;3.07;;
8665;SDS011;4370;48.916;8.380;2023-05-07T09:27:03;3.47;;;2.50;;
8665;SDS011;4370;48.916;8.380;2023-05-07T09:29:33;6.83;;;2.83;;
8665;SDS011;4370;48.916;8.380;2023-05-07T09:32:02;3.50;;;2.50;;
8665;SDS011;4370;48.916;8.380;2023-05-07T09:34:32;5.43;;;3.00;;
8665;SDS011;4370;48.916;8.380;2023-05-07T09:36:59;5.87;;;2.83;;
8665;SDS011;4370;48.916;8.380;2023-05-07T09:39:25;3.17;;;2.87;;
8665;SDS011;4370;48.916;8.380;2023-05-07T09:41:50;3.03;;;2.70;;
8665;SDS011;4370;48.916;8.380;2023-05-07T09:44:19;6.53;;;3.20;;
8665;SDS011;4370;48.916;8.380;2023-05-07T09:46:45;5.73;;;3.00;;
8665;SDS011;4370;48.916;8.380;2023-05-07T09:49:21;3.27;;;2.70;;
8665;SDS011;4370;48.916;8.380;2023-05-07T09:51:49;3.90;;;3.10;;
8665;SDS011;4370;48.916;8.380;2023-05-07T09:54:17;3.67;;;3.20;;
8665;SDS011;4370;48.916;8.380;2023-05-07T09:56:43;3.63;;;2.80;;
8665;SDS011;4370;48.916;8.380;2023-05-07T09:59:10;3.90;;;2.70;;
8665;SDS011;4370;48.916;8.380;2023-05-07T10:01:38;3.57;;;2.73;;
8665;SDS011;4370;48.916;8.380;2023-05-07T10:04:06;3.00;;;2.70;;
8665;SDS011;4370;48.916;8.380;2023-05-07T10:06:33;4.57;;;2.67;;
8665;SDS011;4370;48.916;8.380;2023-05-07T10:09:00;4.83;;;2.93;;
8665;SDS011;4370;48.916;8.380;2023-05-07T10:11:26;3.20;;;2.77;;
8665;SDS011;4370;48.916;8.380;2023-05-07T10:13:53;5.23;;;2.47;;
8665;SDS011;4370;48.916;8.380;2023-05-07T10:16:19;4.20;;;2.57;;
8665;SDS011;4370;48.916;8.380;2023-05-07T10:18:48;2.90;;;2.60;;
8665;SDS011;4370;48.916;8.380;2023-05-07T10:21:16;3.80;;;2.67;;
8665;SDS011;4370;48.916;8.380;2023-05-07T10:24:04;3.97;;;2.33;;
8665;SDS011;4370;48.916;8.380;2023-05-07T10:26:39;5.07;;;2.60;;
8665;SDS011;4370;48.916;8.380;2023-05-07T10:29:25;2.77;;;2.53;;
8665;SDS011;4370;48.916;8.380;2023-05-07T10:34:53;3.07;;;2.40;;
8665;SDS011;4370;48.916;8.380;2023-05-07T10:37:21;3.30;;;2.30;;
8665;SDS011;4370;48.916;8.380;2023-05-07T10:39:48;4.23;;;2.27;;
8665;SDS011;4370;48.916;8.380;2023-05-07T10:42:14;3.37;;;2.40;;
8665;SDS011;4370;48.916;8.380;2023-05-07T10:44:40;4.40;;;2.60;;
8665;SDS011;4370;48.916;8.380;2023-05-07T10:47:07;3.03;;;2.50;;
8665;SDS011;4370;48.916;8.380;2023-05-07T10:49:34;3.03;;;2.43;;
8665;SDS011;4370;48.916;8.380;2023-05-07T10:52:21;3.73;;;2.50;;
8665;SDS011;4370;48.916;8.380;2023-05-07T10:57:39;4.20;;;2.17;;
8665;SDS011;4370;48.916;8.380;2023-05-07T11:05:24;4.20;;;2.20;;
8665;SDS011;4370;48.916;8.380;2023-05-07T11:07:56;2.70;;;2.10;;
8665;SDS011;4370;48.916;8.380;2023-05-07T11:13:13;3.40;;;2.10;;
8665;SDS011;4370;48.916;8.380;2023-05-07T11:15:40;3.83;;;2.17;;
8665;SDS011;4370;48.916;8.380;2023-05-07T11:18:16;2.97;;;2.03;;
8665;SDS011;4370;48.916;8.380;2023-05-07T11:26:00;3.43;;;2.20;;
8665;SDS011;4370;48.916;8.380;2023-05-07T11:28:28;2.67;;;2.00;;
8665;SDS011;4370;48.916;8.380;2023-05-07T11:30:54;2.45;;;2.08;;
8665;SDS011;4370;48.916;8.380;2023-05-07T11:33:22;2.22;;;1.90;;
8665;SDS011;4370;48.916;8.380;2023-05-07T11:35:50;2.33;;;1.70;;
8665;SDS011;4370;48.916;8.380;2023-05-07T11:38:17;2.63;;;1.90;;
8665;SDS011;4370;48.916;8.380;2023-05-07T11:40:54;3.22;;;2.22;;
8665;SDS011;4370;48.916;8.380;2023-05-07T11:43:22;3.80;;;2.13;;
8665;SDS011;4370;48.916;8.380;2023-05-07T11:45:48;2.38;;;1.88;;
8665;SDS011;4370;48.916;8.380;2023-05-07T11:48:14;3.40;;;2.42;;
8665;SDS011;4370;48.916;8.380;2023-05-07T11:53:17;3.50;;;1.80;;
8665;SDS011;4370;48.916;8.380;2023-05-07T11:55:44;2.28;;;2.05;;
8665;SDS011;4370;48.916;8.380;2023-05-07T11:58:10;2.50;;;1.90;;
8665;SDS011;4370;48.916;8.380;2023-05-07T12:00:37;3.80;;;1.90;;
8665;SDS011;4370;48.916;8.380;2023-05-07T12:03:03;2.10;;;1.90;;
8665;SDS011;4370;48.916;8.380;2023-05-07T12:05:30;2.65;;;1.73;;
8665;SDS011;4370;48.916;8.380;2023-05-07T12:07:58;2.45;;;1.60;;
8665;SDS011;4370;48.916;8.380;2023-05-07T12:10:24;3.28;;;2.00;;
8665;SDS011;4370;48.916;8.380;2023-05-07T12:12:50;1.92;;;1.70;;
8665;SDS011;4370;48.916;8.380;2023-05-07T12:15:16;3.67;;;1.85;;
8665;SDS011;4370;48.916;8.380;2023-05-07T12:17:42;2.28;;;2.00;;
8665;SDS011;4370;48.916;8.380;2023-05-07T12:20:08;4.18;;;1.70;;
8665;SDS011;4370;48.916;8.380;2023-05-07T12:22:35;3.40;;;1.98;;
8665;SDS011;4370;48.916;8.380;2023-05-07T12:25:01;4.82;;;2.00;;
8665;SDS011;4370;48.916;8.380;2023-05-07T12:27:27;2.55;;;2.10;;
8665;SDS011;4370;48.916;8.380;2023-05-07T12:29:53;3.97;;;2.03;;
8665;SDS011;4370;48.916;8.380;2023-05-07T12:32:20;5.72;;;2.13;;
8665;SDS011;4370;48.916;8.380;2023-05-07T12:34:49;2.90;;;1.90;;
8665;SDS011;4370;48.916;8.380;2023-05-07T12:37:15;5.00;;;2.00;;
8665;SDS011;4370;48.916;8.380;2023-05-07T12:39:47;2.13;;;2.00;;
8665;SDS011;4370;48.916;8.380;2023-05-07T12:42:19;3.42;;;1.95;;
8665;SDS011;4370;48.916;8.380;2023-05-07T12:44:50;3.08;;;1.88;;
8665;SDS011;4370;48.916;8.380;2023-05-07T12:47:17;2.92;;;1.75;;
8665;SDS011;4370;48.916;8.380;2023-05-07T12:49:43;5.55;;;1.98;;
8665;SDS011;4370;48.916;8.380;2023-05-07T12:52:11;3.28;;;1.98;;
8665;SDS011;4370;48.916;8.380;2023-05-07T12:54:37;2.85;;;1.92;;
8665;SDS011;4370;48.916;8.380;2023-05-07T12:57:08;3.10;;;2.10;;
8665;SDS011;4370;48.916;8.380;2023-05-07T12:59:38;2.67;;;1.92;;
8665;SDS011;4370;48.916;8.380;2023-05-07T13:02:05;2.47;;;1.90;;
8665;SDS011;4370;48.916;8.380;2023-05-07T13:04:31;2.15;;;1.95;;
8665;SDS011;4370;48.916;8.380;2023-05-07T13:06:57;2.55;;;1.80;;
8665;SDS011;4370;48.916;8.380;2023-05-07T13:09:23;2.33;;;1.92;;
8665;SDS011;4370;48.916;8.380;2023-05-07T13:11:49;4.32;;;2.00;;
8665;SDS011;4370;48.916;8.380;2023-05-07T13:14:15;3.15;;;2.35;;
8665;SDS011;4370;48.916;8.380;2023-05-07T13:16:41;3.42;;;2.30;;
8665;SDS011;4370;48.916;8.380;2023-05-07T13:19:07;3.45;;;2.20;;
8665;SDS011;4370;48.916;8.380;2023-05-07T13:21:33;3.53;;;2.25;;
8665;SDS011;4370;48.916;8.380;2023-05-07T13:23:59;5.88;;;2.28;;
8665;SDS011;4370;48.916;8.380;2023-05-07T13:26:25;2.55;;;2.03;;
8665;SDS011;4370;48.916;8.380;2023-05-07T13:28:51;3.17;;;2.20;;
8665;SDS011;4370;48.916;8.380;2023-05-07T13:31:17;5.90;;;2.28;;
8665;SDS011;4370;48.916;8.380;2023-05-07T13:33:43;2.65;;;2.25;;
8665;SDS011;4370;48.916;8.380;2023-05-07T13:36:09;3.45;;;2.10;;
8665;SDS011;4370;48.916;8.380;2023-05-07T13:38:35;5.60;;;2.22;;
8665;SDS011;4370;48.916;8.380;2023-05-07T13:41:01;3.05;;;2.28;;
8665;SDS011;4370;48.916;8.380;2023-05-07T13:43:27;2.33;;;2.05;;
8665;SDS011;4370;48.916;8.380;2023-05-07T13:45:53;5.47;;;2.50;;
8665;SDS011;4370;48.916;8.380;2023-05-07T13:48:19;2.95;;;2.22;;
8665;SDS011;4370;48.916;8.380;2023-05-07T13:50:45;4.40;;;2.95;;
8665;SDS011;4370;48.916;8.380;2023-05-07T13:53:11;4.95;;;2.90;;
8665;SDS011;4370;48.916;8.380;2023-05-07T13:55:36;6.57;;;2.40;;
8665;SDS011;4370;48.916;8.380;2023-05-07T13:58:02;5.25;;;2.90;;
8665;SDS011;4370;48.916;8.380;2023-05-07T14:00:28;3.50;;;2.33;;
8665;SDS011;4370;48.916;8.380;2023-05-07T14:02:54;5.32;;;2.53;;
8665;SDS011;4370;48.916;8.380;2023-05-07T14:05:21;3.80;;;1.90;;
8665;SDS011;4370;48.916;8.380;2023-05-07T14:07:51;2.72;;;1.35;;
8665;SDS011;4370;48.916;8.380;2023-05-07T14:10:18;1.42;;;1.10;;
8665;SDS011;4370;48.916;8.380;2023-05-07T14:12:44;2.55;;;1.20;;
8665;SDS011;4370;48.916;8.380;2023-05-07T14:15:10;1.65;;;1.25;;
8665;SDS011;4370;48.916;8.380;2023-05-07T14:17:36;0.90;;;0.90;;
8665;SDS011;4370;48.916;8.380;2023-05-07T14:20:02;1.45;;;1.17;;
8665;SDS011;4370;48.916;8.380;2023-05-07T14:22:28;1.23;;;1.10;;
8665;SDS011;4370;48.916;8.380;2023-05-07T14:24:54;1.50;;;1.20;;
8665;SDS011;4370;48.916;8.380;2023-05-07T14:27:20;1.08;;;1.02;;
8665;SDS011;4370;48.916;8.380;2023-05-07T14:29:46;1.48;;;1.10;;
8665;SDS011;4370;48.916;8.380;2023-05-07T14:32:16;1.00;;;1.00;;
8665;SDS011;4370;48.916;8.380;2023-05-07T14:34:42;1.70;;;1.17;;
8665;SDS011;4370;48.916;8.380;2023-05-07T14:37:07;1.83;;;1.42;;
8665;SDS011;4370;48.916;8.380;2023-05-07T14:39:33;1.23;;;1.00;;
8665;SDS011;4370;48.916;8.380;2023-05-07T14:41:59;1.83;;;1.10;;
8665;SDS011;4370;48.916;8.380;2023-05-07T14:44:25;2.67;;;1.20;;
8665;SDS011;4370;48.916;8.380;2023-05-07T14:46:51;3.30;;;1.20;;
8665;SDS011;4370;48.916;8.380;2023-05-07T14:49:17;2.05;;;1.33;;
8665;SDS011;4370;48.916;8.380;2023-05-07T14:51:46;1.35;;;1.25;;
8665;SDS011;4370;48.916;8.380;2023-05-07T14:54:12;1.30;;;1.20;;
8665;SDS011;4370;48.916;8.380;2023-05-07T14:56:38;1.58;;;1.20;;
8665;SDS011;4370;48.916;8.380;2023-05-07T14:59:05;2.03;;;1.20;;
8665;SDS011;4370;48.916;8.380;2023-05-07T15:01:31;1.42;;;1.20;;
8665;SDS011;4370;48.916;8.380;2023-05-07T15:03:57;1.20;;;1.10;;
8665;SDS011;4370;48.916;8.380;2023-05-07T15:06:22;1.42;;;1.33;;
8665;SDS011;4370;48.916;8.380;2023-05-07T15:08:49;1.30;;;1.20;;
8665;SDS011;4370;48.916;8.380;2023-05-07T15:11:14;1.42;;;1.33;;
8665;SDS011;4370;48.916;8.380;2023-05-07T15:13:41;1.73;;;1.30;;
8665;SDS011;4370;48.916;8.380;2023-05-07T15:16:07;1.45;;;1.20;;
8665;SDS011;4370;48.916;8.380;2023-05-07T15:18:33;2.17;;;1.50;;
8665;SDS011;4370;48.916;8.380;2023-05-07T15:20:59;1.60;;;1.50;;
8665;SDS011;4370;48.916;8.380;2023-05-07T15:23:25;1.35;;;1.25;;
8665;SDS011;4370;48.916;8.380;2023-05-07T15:25:51;1.75;;;1.40;;
8665;SDS011;4370;48.916;8.380;2023-05-07T15:28:17;1.67;;;1.40;;
8665;SDS011;4370;48.916;8.380;2023-05-07T15:30:43;3.47;;;1.60;;
8665;SDS011;4370;48.916;8.380;2023-05-07T15:33:09;2.47;;;1.38;;